Time,TemperatureF,DewpointF,PressureIn,WindDirection,WindDirectionDegrees,WindSpeedMPH,WindSpeedGustMPH,Humidity,HourlyPrecipIn,Conditions,Clouds,dailyrainin,SolarRadiationWatts/m^2,SoftwareType,DateUTC
2013-07-28 00:11:00,53.5,49.0,29.84,West,280,7.0,9.0,83,0.00,,,0.00,0,weatherlink.com 1.10,2013-07-28 05:11:00,
2013-07-28 00:26:00,53.5,49.0,29.85,WNW,294,5.0,10.0,83,0.00,,,0.00,0,weatherlink.com 1.10,2013-07-28 05:26:00,
2013-07-28 01:11:00,53.5,49.0,29.84,West,267,0.0,6.0,83,0.00,,,0.00,0,weatherlink.com 1.10,2013-07-28 06:11:00,
2013-07-28 01:41:00,53.3,49.0,29.83,West,265,4.0,10.0,84,0.00,,,0.00,0,weatherlink.com 1.10,2013-07-28 06:41:00,
2013-07-28 02:11:00,53.4,48.0,29.83,WNW,286,4.0,7.0,83,0.00,,,0.00,0,weatherlink.com 1.10,2013-07-28 07:11:00,
2013-07-28 02:27:00,53.2,49.0,29.83,WNW,286,5.0,6.0,85,0.00,,,0.00,0,weatherlink.com 1.10,2013-07-28 07:27:00,
2013-07-28 02:41:00,52.9,49.0,29.83,WNW,288,5.0,7.0,86,0.00,,,0.00,0,weatherlink.com 1.10,2013-07-28 07:41:00,
2013-07-28 02:57:00,53.0,49.0,29.83,WNW,294,5.0,9.0,86,0.00,,,0.00,0,weatherlink.com 1.10,2013-07-28 07:57:00,
2013-07-28 03:12:00,53.2,49.0,29.82,WNW,288,4.0,8.0,85,0.00,,,0.00,0,weatherlink.com 1.10,2013-07-28 08:12:00,
2013-07-28 03:27:00,53.4,49.0,29.82,West,273,2.0,8.0,85,0.00,,,0.00,0,weatherlink.com 1.10,2013-07-28 08:27:00,
2013-07-28 03:42:00,53.7,49.0,29.82,West,279,4.0,11.0,84,0.00,,,0.00,0,weatherlink.com 1.10,2013-07-28 08:42:00,
2013-07-28 03:57:00,53.8,49.0,29.82,WNW,290,10.0,14.0,84,0.00,,,0.00,0,weatherlink.com 1.10,2013-07-28 08:57:00,
2013-07-28 04:12:00,53.9,49.0,29.82,WNW,294,9.0,17.0,84,0.00,,,0.00,0,weatherlink.com 1.10,2013-07-28 09:12:00,
2013-07-28 04:27:00,53.8,49.0,29.82,NW,308,8.0,14.0,84,0.00,,,0.00,0,weatherlink.com 1.10,2013-07-28 09:27:00,
2013-07-28 04:42:00,53.0,49.0,29.83,WNW,302,7.0,11.0,85,0.00,,,0.00,0,weatherlink.com 1.10,2013-07-28 09:42:00,
2013-07-28 04:57:00,51.8,48.0,29.83,WNW,303,6.0,9.0,87,0.00,,,0.00,0,weatherlink.com 1.10,2013-07-28 09:57:00,
2013-07-28 05:12:00,51.1,48.0,29.83,WNW,300,7.0,11.0,88,0.00,,,0.00,0,weatherlink.com 1.10,2013-07-28 10:12:00,
2013-07-28 05:27:00,50.8,48.0,29.84,WNW,292,8.0,10.0,89,0.00,,,0.00,0,weatherlink.com 1.10,2013-07-28 10:27:00,
2013-07-28 05:42:00,50.4,47.0,29.84,WNW,295,7.0,9.0,89,0.00,,,0.00,0,weatherlink.com 1.10,2013-07-28 10:42:00,
2013-07-28 05:57:00,49.7,47.0,29.85,WNW,296,6.0,9.0,90,0.00,,,0.00,7,weatherlink.com 1.10,2013-07-28 10:57:00,
2013-07-28 06:12:00,49.3,47.0,29.85,WNW,297,5.0,8.0,91,0.00,,,0.00,12,weatherlink.com 1.10,2013-07-28 11:12:00,
2013-07-28 06:27:00,49.5,48.0,29.85,NW,304,8.0,9.0,93,0.00,,,0.00,30,weatherlink.com 1.10,2013-07-28 11:27:00,
2013-07-28 06:42:00,50.5,49.0,29.85,NW,312,5.0,11.0,93,0.00,,,0.00,44,weatherlink.com 1.10,2013-07-28 11:42:00,
2013-07-28 06:57:00,51.1,49.0,29.85,NW,306,8.0,9.0,92,0.00,,,0.00,63,weatherlink.com 1.10,2013-07-28 11:57:00,
2013-07-28 07:12:00,51.6,49.0,29.86,WNW,298,9.0,12.0,91,0.00,,,0.00,169,weatherlink.com 1.10,2013-07-28 12:12:00,
2013-07-28 07:27:00,52.1,49.0,29.86,NW,313,9.0,14.0,89,0.00,,,0.00,172,weatherlink.com 1.10,2013-07-28 12:27:00,
2013-07-28 07:42:00,52.5,49.0,29.87,NW,311,15.0,17.0,88,0.00,,,0.00,206,weatherlink.com 1.10,2013-07-28 12:42:00,
2013-07-28 07:57:00,53.2,49.0,29.88,NW,326,16.0,20.0,86,0.00,,,0.00,432,weatherlink.com 1.10,2013-07-28 12:57:00,
2013-07-28 08:12:00,53.8,49.0,29.87,NW,311,12.0,16.0,83,0.00,,,0.00,545,weatherlink.com 1.10,2013-07-28 13:12:00,
2013-07-28 08:27:00,53.3,48.0,29.88,NW,313,12.0,16.0,82,0.00,,,0.00,209,weatherlink.com 1.10,2013-07-28 13:27:00,
2013-07-28 08:42:00,53.7,48.0,29.88,NNW,347,7.0,16.0,81,0.00,,,0.00,504,weatherlink.com 1.10,2013-07-28 13:42:00,
2013-07-28 08:57:00,55.4,49.0,29.89,NNW,331,6.0,12.0,79,0.00,,,0.00,613,weatherlink.com 1.10,2013-07-28 13:57:00,
2013-07-28 09:12:00,56.1,49.0,29.88,NNW,327,12.0,14.0,77,0.00,,,0.00,652,weatherlink.com 1.10,2013-07-28 14:12:00,
2013-07-28 09:27:00,55.6,49.0,29.89,NW,325,9.0,14.0,78,0.00,,,0.00,712,weatherlink.com 1.10,2013-07-28 14:27:00,
2013-07-28 09:43:00,55.0,48.0,29.89,WNW,289,6.0,16.0,76,0.00,,,0.00,220,weatherlink.com 1.10,2013-07-28 14:43:00,
2013-07-28 09:58:00,56.3,50.0,29.89,NW,315,8.0,15.0,79,0.00,,,0.00,352,weatherlink.com 1.10,2013-07-28 14:58:00,
2013-07-28 10:13:00,56.6,49.0,29.89,NW,321,7.0,13.0,77,0.00,,,0.00,902,weatherlink.com 1.10,2013-07-28 15:13:00,
2013-07-28 10:28:00,58.1,50.0,29.90,WNW,299,16.0,17.0,75,0.00,,,0.00,313,weatherlink.com 1.10,2013-07-28 15:28:00,
2013-07-28 10:43:00,57.2,50.0,29.90,NW,309,10.0,14.0,77,0.00,,,0.00,371,weatherlink.com 1.10,2013-07-28 15:43:00,
2013-07-28 10:58:00,58.8,51.0,29.89,NW,315,11.0,15.0,74,0.00,,,0.00,1107,weatherlink.com 1.10,2013-07-28 15:58:00,
2013-07-28 11:13:00,59.3,51.0,29.90,NW,316,9.0,14.0,75,0.00,,,0.00,1037,weatherlink.com 1.10,2013-07-28 16:13:00,
2013-07-28 11:28:00,59.0,50.0,29.90,WNW,294,10.0,14.0,73,0.00,,,0.00,357,weatherlink.com 1.10,2013-07-28 16:28:00,
2013-07-28 11:43:00,59.0,51.0,29.91,WNW,296,14.0,16.0,74,0.00,,,0.00,418,weatherlink.com 1.10,2013-07-28 16:43:00,
2013-07-28 11:58:00,60.1,51.0,29.91,NW,306,9.0,15.0,73,0.00,,,0.00,473,weatherlink.com 1.10,2013-07-28 16:58:00,
2013-07-28 12:13:00,60.6,52.0,29.91,NW,319,15.0,19.0,72,0.00,,,0.00,443,weatherlink.com 1.10,2013-07-28 17:13:00,
2013-07-28 12:29:00,60.5,53.0,29.91,WNW,298,9.0,19.0,75,0.00,,,0.00,1255,weatherlink.com 1.10,2013-07-28 17:29:00,
2013-07-28 12:44:00,60.8,52.0,29.91,NW,310,9.0,18.0,74,0.00,,,0.00,1139,weatherlink.com 1.10,2013-07-28 17:44:00,
2013-07-28 12:59:00,61.3,51.0,29.91,WNW,296,17.0,18.0,69,0.00,,,0.00,696,weatherlink.com 1.10,2013-07-28 17:59:00,
2013-07-28 13:14:00,61.9,54.0,29.91,West,278,5.0,17.0,74,0.00,,,0.00,1107,weatherlink.com 1.10,2013-07-28 18:14:00,
2013-07-28 13:29:00,61.4,52.0,29.91,WNW,295,11.0,18.0,70,0.00,,,0.00,914,weatherlink.com 1.10,2013-07-28 18:29:00,
2013-07-28 13:44:00,63.0,54.0,29.91,NW,315,14.0,15.0,73,0.00,,,0.00,974,weatherlink.com 1.10,2013-07-28 18:44:00,
2013-07-28 13:59:00,64.2,51.0,29.91,NW,323,11.0,17.0,63,0.00,,,0.00,336,weatherlink.com 1.10,2013-07-28 18:59:00,
2013-07-28 14:14:00,63.9,54.0,29.91,NW,306,9.0,16.0,69,0.00,,,0.00,540,weatherlink.com 1.10,2013-07-28 19:14:00,
2013-07-28 14:29:00,64.8,53.0,29.91,WNW,285,7.0,17.0,65,0.00,,,0.00,373,weatherlink.com 1.10,2013-07-28 19:29:00,
2013-07-28 14:44:00,63.8,53.0,29.91,NW,323,11.0,15.0,67,0.00,,,0.00,278,weatherlink.com 1.10,2013-07-28 19:44:00,
2013-07-28 14:59:00,64.5,54.0,29.91,WNW,302,7.0,18.0,69,0.00,,,0.00,1046,weatherlink.com 1.10,2013-07-28 19:59:00,
2013-07-28 15:14:00,63.8,53.0,29.91,WNW,291,8.0,16.0,69,0.00,,,0.00,478,weatherlink.com 1.10,2013-07-28 20:14:00,
2013-07-28 15:29:00,64.8,54.0,29.91,WNW,302,10.0,14.0,68,0.00,,,0.00,800,weatherlink.com 1.10,2013-07-28 20:29:00,
2013-07-28 15:44:00,64.9,52.0,29.91,NW,309,11.0,16.0,64,0.00,,,0.00,374,weatherlink.com 1.10,2013-07-28 20:44:00,
2013-07-28 15:59:00,66.0,53.0,29.91,West,278,10.0,15.0,63,0.00,,,0.00,773,weatherlink.com 1.10,2013-07-28 20:59:00,
2013-07-28 16:14:00,65.9,53.0,29.91,West,281,6.0,18.0,64,0.00,,,0.00,237,weatherlink.com 1.10,2013-07-28 21:14:00,
2013-07-28 16:29:00,66.0,53.0,29.91,WNW,294,16.0,22.0,63,0.00,,,0.00,740,weatherlink.com 1.10,2013-07-28 21:29:00,
2013-07-28 16:44:00,65.0,53.0,29.91,NW,309,9.0,15.0,66,0.00,,,0.00,461,weatherlink.com 1.10,2013-07-28 21:44:00,
2013-07-28 16:59:00,66.2,53.0,29.91,WNW,290,10.0,16.0,62,0.00,,,0.00,587,weatherlink.com 1.10,2013-07-28 21:59:00,
2013-07-28 17:14:00,66.7,53.0,29.91,WNW,291,12.0,13.0,62,0.00,,,0.00,547,weatherlink.com 1.10,2013-07-28 22:14:00,
2013-07-28 17:29:00,66.0,53.0,29.92,WNW,284,7.0,14.0,63,0.00,,,0.00,213,weatherlink.com 1.10,2013-07-28 22:29:00,
2013-07-28 17:44:00,66.1,53.0,29.92,WNW,288,6.0,12.0,62,0.00,,,0.00,464,weatherlink.com 1.10,2013-07-28 22:44:00,
2013-07-28 17:59:00,65.5,54.0,29.92,NW,306,7.0,11.0,66,0.00,,,0.00,158,weatherlink.com 1.10,2013-07-28 22:59:00,
2013-07-28 18:14:00,65.6,53.0,29.92,WNW,298,12.0,16.0,63,0.00,,,0.00,90,weatherlink.com 1.10,2013-07-28 23:14:00,
2013-07-28 18:29:00,64.1,54.0,29.92,West,279,5.0,9.0,69,0.00,,,0.00,316,weatherlink.com 1.10,2013-07-28 23:29:00,
2013-07-28 18:44:00,66.0,53.0,29.93,WNW,293,8.0,9.0,64,0.00,,,0.00,120,weatherlink.com 1.10,2013-07-28 23:44:00,
2013-07-28 18:59:00,64.1,54.0,29.93,WNW,296,5.0,10.0,69,0.00,,,0.00,74,weatherlink.com 1.10,2013-07-28 23:59:00,
2013-07-28 19:14:00,64.4,55.0,29.93,WNW,295,5.0,7.0,71,0.00,,,0.00,84,weatherlink.com 1.10,2013-07-29 00:14:00,
2013-07-28 19:29:00,63.2,54.0,29.93,WNW,294,5.0,8.0,72,0.00,,,0.00,118,weatherlink.com 1.10,2013-07-29 00:29:00,
2013-07-28 19:44:00,63.5,53.0,29.93,WNW,290,5.0,9.0,69,0.00,,,0.00,67,weatherlink.com 1.10,2013-07-29 00:44:00,
2013-07-28 19:59:00,63.2,53.0,29.93,WNW,290,1.0,4.0,69,0.00,,,0.00,33,weatherlink.com 1.10,2013-07-29 00:59:00,
2013-07-28 20:14:00,62.8,53.0,29.93,WNW,290,0.0,3.0,70,0.00,,,0.00,12,weatherlink.com 1.10,2013-07-29 01:14:00,
2013-07-28 20:29:00,61.3,52.0,29.93,WNW,289,1.0,5.0,72,0.00,,,0.00,0,weatherlink.com 1.10,2013-07-29 01:29:00,
2013-07-28 20:44:00,60.0,52.0,29.93,WNW,289,1.0,4.0,74,0.00,,,0.00,0,weatherlink.com 1.10,2013-07-29 01:44:00,
2013-07-28 20:59:00,59.0,52.0,29.94,WNW,289,0.0,1.0,77,0.00,,,0.00,0,weatherlink.com 1.10,2013-07-29 01:59:00,
2013-07-28 21:14:00,57.6,52.0,29.95,WNW,289,2.0,3.0,80,0.00,,,0.00,0,weatherlink.com 1.10,2013-07-29 02:14:00,
2013-07-28 21:29:00,56.6,52.0,29.96,WNW,289,4.0,5.0,83,0.00,,,0.00,0,weatherlink.com 1.10,2013-07-29 02:29:00,
2013-07-28 21:44:00,56.1,51.0,29.96,WNW,289,3.0,4.0,84,0.00,,,0.00,0,weatherlink.com 1.10,2013-07-29 02:44:00,
2013-07-28 21:59:00,56.4,51.0,29.96,WNW,289,3.0,4.0,83,0.00,,,0.00,0,weatherlink.com 1.10,2013-07-29 02:59:00,
2013-07-28 22:14:00,55.6,51.0,29.97,WNW,289,3.0,4.0,83,0.00,,,0.00,0,weatherlink.com 1.10,2013-07-29 03:14:00,
2013-07-28 22:29:00,54.7,51.0,29.97,WNW,289,2.0,4.0,86,0.00,,,0.00,0,weatherlink.com 1.10,2013-07-29 03:29:00,
2013-07-28 22:44:00,54.1,50.0,29.97,WNW,289,5.0,5.0,87,0.00,,,0.00,0,weatherlink.com 1.10,2013-07-29 03:44:00,
2013-07-28 23:00:00,54.5,51.0,29.97,WNW,289,4.0,5.0,87,0.00,,,0.00,0,weatherlink.com 1.10,2013-07-29 04:00:00,
2013-07-28 23:14:00,54.8,50.0,29.98,WNW,290,2.0,5.0,85,0.00,,,0.00,0,weatherlink.com 1.10,2013-07-29 04:14:00,
2013-07-28 23:29:00,53.7,50.0,29.98,WNW,290,3.0,5.0,87,0.00,,,0.00,0,weatherlink.com 1.10,2013-07-29 04:29:00,
2013-07-28 23:44:00,53.3,50.0,29.98,WNW,290,0.0,2.0,88,0.00,,,0.00,0,weatherlink.com 1.10,2013-07-29 04:44:00,
2013-07-28 23:59:00,52.9,50.0,29.98,WNW,290,1.0,2.0,90,0.00,,,0.00,0,weatherlink.com 1.10,2013-07-29 04:59:00,